Time;durP1;ratioP1;P1;durP2;ratioP2;P2;SDS_P1;SDS_P2;PMS_P1;PMS_P2;Temp;Humidity;BMP_temperature;BMP_pressure;BME280_temperature;BME280_humidity;BME280_pressure;Samples;Min_cycle;Max_cycle;Signal;HPM_P1;HPM_P2
2023/06/30 00:01:55;;;;;;;24.55;12.57;;;;;;;-144.73;100.00;54440.53;5024857;28;20020;-74
2023/06/30 00:04:22;;;;;;;16.23;9.55;;;;;;;-144.73;100.00;54432.31;5029543;28;20028;-74
2023/06/30 00:06:49;;;;;;;23.83;10.35;;;;;;;-144.73;100.00;54432.31;5010274;28;20014;-75
2023/06/30 00:09:21;;;;;;;17.33;9.05;;;;;;;-144.73;100.00;54473.38;5029579;28;20100;-75
2023/06/30 00:11:50;;;;;;;13.13;7.57;;;;;;;-144.73;100.00;54428.22;5007949;28;20085;-75
2023/06/30 00:14:15;;;;;;;18.23;7.35;;;;;;;-144.73;100.00;54456.97;5029189;28;20025;-75
2023/06/30 00:16:40;;;;;;;11.52;6.00;;;;;;;-144.73;100.00;54428.22;5010919;28;20042;-75
2023/06/30 00:19:06;;;;;;;14.65;5.78;;;;;;;-144.73;100.00;54391.28;5012953;28;20033;-75
2023/06/30 00:21:31;;;;;;;12.93;5.05;;;;;;;-144.73;100.00;54409.75;5027778;28;20125;-74
2023/06/30 00:24:04;;;;;;;14.48;4.97;;;;;;;-144.73;100.00;54448.75;5010121;28;20016;-75
2023/06/30 00:26:30;;;;;;;10.25;3.95;;;;;;;-144.73;100.00;54446.69;5021228;28;20040;-75
2023/06/30 00:28:56;;;;;;;6.63;4.35;;;;;;;-144.73;100.00;54391.28;5032388;28;20032;-74
2023/06/30 00:31:22;;;;;;;10.80;4.22;;;;;;;-144.73;100.00;54456.97;5012373;28;20040;-74
2023/06/30 00:33:47;;;;;;;12.13;3.45;;;;;;;-144.73;100.00;54436.44;5029063;28;20393;-74
2023/06/30 00:36:13;;;;;;;14.70;3.83;;;;;;;-144.73;100.00;54424.13;5011236;28;20034;-74
2023/06/30 00:38:38;;;;;;;11.60;3.10;;;;;;;-144.73;100.00;54399.50;5011774;28;20248;-74
2023/06/30 00:41:03;;;;;;;8.45;3.13;;;;;;;-144.73;100.00;54432.31;5011860;28;20536;-74
2023/06/30 00:43:29;;;;;;;7.70;3.00;;;;;;;-144.73;100.00;54424.13;5028508;28;20048;-75
2023/06/30 00:45:55;;;;;;;9.27;3.35;;;;;;;-144.73;100.00;54428.22;5012349;28;20044;-74
2023/06/30 00:48:20;;;;;;;10.73;3.70;;;;;;;-144.73;100.00;54442.59;5011728;28;20108;-75
2023/06/30 00:50:46;;;;;;;13.73;2.72;;;;;;;-144.73;100.00;54465.16;5011702;28;20093;-74
2023/06/30 00:53:13;;;;;;;10.60;2.88;;;;;;;-144.73;100.00;54415.91;5011939;28;20056;-74
2023/06/30 00:55:40;;;;;;;9.68;3.47;;;;;;;-144.73;100.00;54444.66;5011612;28;20041;-74
2023/06/30 00:58:05;;;;;;;8.75;3.58;;;;;;;-144.73;100.00;54399.50;5030001;28;20100;-75
2023/06/30 01:00:31;;;;;;;8.80;2.97;;;;;;;-144.73;100.00;54452.84;5011779;28;20141;-75
2023/06/30 01:03:14;;;;;;;10.05;3.40;;;;;;;-144.73;100.00;54448.75;5029826;28;20014;-75
2023/06/30 01:05:53;;;;;;;10.77;3.30;;;;;;;-144.73;100.00;54456.97;5010163;28;20036;-74
2023/06/30 01:08:45;;;;;;;14.98;3.67;;;;;;;-144.73;100.00;54444.66;5029994;28;20055;-74
2023/06/30 01:11:12;;;;;;;6.10;2.88;;;;;;;-144.73;100.00;54407.69;5019930;28;20390;-75
2023/06/30 01:13:38;;;;;;;7.22;3.17;;;;;;;-144.73;100.00;54448.75;5029913;28;20082;-75
2023/06/30 01:16:05;;;;;;;13.38;3.30;;;;;;;-144.73;100.00;54473.38;5029981;28;20167;-74
2023/06/30 01:18:34;;;;;;;13.30;3.05;;;;;;;-144.73;100.00;54424.13;5029547;28;20030;-74
2023/06/30 01:21:00;;;;;;;16.67;3.55;;;;;;;-144.73;100.00;54461.06;5009655;28;20148;-74
2023/06/30 01:23:34;;;;;;;8.77;3.17;;;;;;;-144.73;100.00;54428.22;5020671;28;20504;-74
2023/06/30 01:26:02;;;;;;;12.57;3.45;;;;;;;-144.73;100.00;54436.44;5025257;28;20462;-75
2023/06/30 01:28:28;;;;;;;9.82;3.22;;;;;;;-144.73;100.00;54469.28;5028348;28;20032;-74
2023/06/30 01:30:56;;;;;;;10.60;4.10;;;;;;;-144.73;100.00;54438.50;5025213;28;20026;-74
2023/06/30 01:33:21;;;;;;;11.70;3.45;;;;;;;-144.73;100.00;54502.13;5011045;28;20048;-76
2023/06/30 01:35:47;;;;;;;11.25;3.75;;;;;;;-144.73;100.00;54448.75;5014942;28;20498;-75
2023/06/30 01:38:13;;;;;;;12.60;4.00;;;;;;;-144.73;100.00;54428.22;5016540;28;20029;-74
2023/06/30 01:40:39;;;;;;;10.88;4.00;;;;;;;-144.73;100.00;54440.53;5027508;28;20035;-75
2023/06/30 01:43:05;;;;;;;14.95;5.38;;;;;;;-144.73;100.00;54465.16;5035365;28;20021;-74
2023/06/30 01:45:32;;;;;;;12.80;4.10;;;;;;;-144.73;100.00;54461.06;5028889;28;20556;-75
2023/06/30 01:47:58;;;;;;;11.85;3.72;;;;;;;-144.73;100.00;54420.00;5028241;28;20104;-74
2023/06/30 01:50:44;;;;;;;15.52;4.68;;;;;;;-144.73;100.00;54432.31;5024040;28;20045;-75
2023/06/30 01:53:28;;;;;;;13.55;4.57;;;;;;;-144.73;100.00;54448.75;5020022;28;20068;-74
2023/06/30 01:56:12;;;;;;;14.63;5.47;;;;;;;-144.73;100.00;54452.84;4997837;28;20100;-74
2023/06/30 01:58:38;;;;;;;15.18;5.70;;;;;;;-144.73;100.00;54444.66;5005884;28;20034;-74
2023/06/30 02:01:03;;;;;;;16.98;6.68;;;;;;;-144.73;100.00;54461.06;5018012;28;20084;-74
2023/06/30 02:03:29;;;;;;;12.23;6.15;;;;;;;-144.73;100.00;54428.22;5006317;28;20013;-75
2023/06/30 02:05:54;;;;;;;24.48;6.43;;;;;;;-144.73;100.00;54452.84;5012963;28;20037;-74
2023/06/30 02:08:20;;;;;;;22.35;7.35;;;;;;;-144.73;100.00;54417.97;5003546;28;20036;-74
2023/06/30 02:10:45;;;;;;;18.40;6.05;;;;;;;-144.73;100.00;54446.69;5003620;28;20156;-74
2023/06/30 02:13:10;;;;;;;13.27;6.20;;;;;;;-144.73;100.00;54461.06;4998833;28;20084;-74
2023/06/30 02:15:36;;;;;;;10.18;5.13;;;;;;;-144.73;100.00;54415.91;5014753;28;20030;-75
2023/06/30 02:18:03;;;;;;;16.50;5.00;;;;;;;-144.73;100.00;54420.00;5021685;28;20541;-75
2023/06/30 02:20:28;;;;;;;17.83;4.95;;;;;;;-144.73;100.00;54465.16;5005799;28;20034;-75
2023/06/30 02:22:53;;;;;;;13.80;5.20;;;;;;;-144.73;100.00;54452.84;5010832;28;20030;-74
2023/06/30 02:25:19;;;;;;;16.63;4.45;;;;;;;-144.73;100.00;54424.13;5032779;28;20040;-75
2023/06/30 02:27:45;;;;;;;14.13;4.55;;;;;;;-144.73;100.00;54428.22;4996506;28;20026;-74
2023/06/30 02:30:13;;;;;;;21.27;4.38;;;;;;;-144.73;100.00;54415.91;5010025;28;20065;-75
2023/06/30 02:32:40;;;;;;;25.35;5.15;;;;;;;-144.73;100.00;54456.97;5005040;28;20026;-74
2023/06/30 02:35:06;;;;;;;11.93;4.10;;;;;;;-144.73;100.00;54420.00;5020527;28;20095;-74
2023/06/30 02:37:32;;;;;;;15.45;4.28;;;;;;;-144.73;100.00;54424.13;5010248;28;20029;-75
2023/06/30 02:39:59;;;;;;;17.17;3.75;;;;;;;-144.73;100.00;54440.53;5023763;28;20057;-75
2023/06/30 02:42:24;;;;;;;13.35;4.30;;;;;;;-144.73;100.00;54428.22;5005906;28;20029;-75
2023/06/30 02:44:52;;;;;;;13.13;4.40;;;;;;;-144.73;100.00;54452.84;5009644;28;20030;-74
2023/06/30 02:47:19;;;;;;;21.45;5.47;;;;;;;-144.73;100.00;54420.00;5013892;28;20029;-75
2023/06/30 02:49:45;;;;;;;11.25;4.70;;;;;;;-144.73;100.00;54424.13;5024565;28;20037;-75
2023/06/30 02:52:13;;;;;;;16.67;4.97;;;;;;;-144.73;100.00;54452.84;5009374;28;20026;-74
2023/06/30 02:54:39;;;;;;;14.55;5.72;;;;;;;-144.73;100.00;54465.16;5022491;28;20045;-74
2023/06/30 02:57:04;;;;;;;23.38;5.72;;;;;;;-144.73;100.00;54467.22;5013808;28;20037;-74
2023/06/30 02:59:29;;;;;;;13.32;4.90;;;;;;;-144.73;100.00;54428.22;5017976;28;20037;-76
2023/06/30 03:01:55;;;;;;;21.83;5.00;;;;;;;-144.73;100.00;54452.84;5026555;28;20030;-75
2023/06/30 03:04:20;;;;;;;8.50;4.40;;;;;;;-144.73;100.00;54465.16;5013078;28;20026;-76
2023/06/30 03:06:45;;;;;;;20.30;4.60;;;;;;;-144.73;100.00;54461.06;5018950;28;20017;-75
2023/06/30 03:09:11;;;;;;;15.23;4.55;;;;;;;-144.73;100.00;54444.66;5024733;28;20017;-76
2023/06/30 03:11:36;;;;;;;19.60;4.55;;;;;;;-144.73;100.00;54452.84;5011557;28;20129;-76
2023/06/30 03:14:02;;;;;;;15.18;4.00;;;;;;;-144.73;100.00;54465.16;5039894;28;20089;-76
2023/06/30 03:16:46;;;;;;;12.38;3.17;;;;;;;-144.73;100.00;54452.84;5017794;28;20080;-75
2023/06/30 03:19:29;;;;;;;13.82;3.70;;;;;;;-144.73;100.00;54485.69;5023565;28;20043;-75
2023/06/30 03:21:55;;;;;;;19.98;3.88;;;;;;;-144.73;100.00;54444.66;5046768;28;20021;-75
2023/06/30 03:24:20;;;;;;;15.40;4.05;;;;;;;-144.73;100.00;54440.53;5006160;28;20445;-76
2023/06/30 03:26:46;;;;;;;16.85;2.97;;;;;;;-144.73;100.00;54481.59;5005125;28;20026;-75
2023/06/30 03:29:11;;;;;;;11.85;3.03;;;;;;;-144.73;100.00;54444.66;5032469;28;20021;-75
2023/06/30 03:31:36;;;;;;;14.18;2.78;;;;;;;-144.73;100.00;54485.69;5013700;28;20095;-75
2023/06/30 03:34:03;;;;;;;9.32;2.60;;;;;;;-144.73;100.00;54440.53;5016062;28;20036;-76
2023/06/30 03:36:29;;;;;;;16.45;3.47;;;;;;;-144.73;100.00;54448.75;5013992;28;20038;-76
2023/06/30 03:38:54;;;;;;;9.45;3.38;;;;;;;-144.73;100.00;54452.84;5011361;28;20029;-76
2023/06/30 03:41:19;;;;;;;11.20;3.13;;;;;;;-144.73;100.00;54465.16;5020254;28;20037;-76
2023/06/30 03:43:45;;;;;;;7.55;2.92;;;;;;;-144.73;100.00;54411.81;5011290;28;20068;-76
2023/06/30 03:46:11;;;;;;;18.40;3.80;;;;;;;-144.73;100.00;54489.81;5004628;28;20084;-76
2023/06/30 03:48:37;;;;;;;10.50;2.90;;;;;;;-144.73;100.00;54448.75;5022344;28;20028;-76
2023/06/30 03:51:02;;;;;;;5.28;2.28;;;;;;;-144.73;100.00;54473.38;5033065;28;20125;-76
2023/06/30 03:53:27;;;;;;;20.15;3.70;;;;;;;-144.73;100.00;54436.44;5016289;28;20030;-76
2023/06/30 03:55:53;;;;;;;10.30;2.80;;;;;;;-144.73;100.00;54446.69;5025723;28;20036;-75
2023/06/30 03:58:18;;;;;;;10.85;2.60;;;;;;;-144.73;100.00;54444.66;5027572;28;20021;-75
2023/06/30 04:00:43;;;;;;;18.40;2.92;;;;;;;-144.73;100.00;54444.66;5032296;28;20029;-76
2023/06/30 04:03:09;;;;;;;9.70;2.50;;;;;;;-144.73;100.00;54432.31;5026505;28;20289;-76
2023/06/30 04:05:34;;;;;;;12.13;3.00;;;;;;;-144.73;100.00;54444.66;5042648;28;20049;-76
2023/06/30 04:08:00;;;;;;;11.25;2.85;;;;;;;-144.73;100.00;54452.84;5033030;28;20064;-76
2023/06/30 04:10:25;;;;;;;6.90;2.70;;;;;;;-144.73;100.00;54428.22;5023227;28;20037;-75
2023/06/30 04:12:50;;;;;;;10.65;3.13;;;;;;;-144.73;100.00;54444.66;5029834;28;20032;-76
2023/06/30 04:15:16;;;;;;;10.50;2.63;;;;;;;-144.73;100.00;54461.06;5022210;28;20041;-76
2023/06/30 04:17:43;;;;;;;16.38;2.95;;;;;;;-144.73;100.00;54475.44;5010916;28;20048;-76
2023/06/30 04:20:10;;;;;;;10.20;2.55;;;;;;;-144.73;100.00;54438.50;5031526;28;20060;-75
2023/06/30 04:22:37;;;;;;;19.17;3.03;;;;;;;-144.73;100.00;54440.53;5033594;28;20029;-76
2023/06/30 04:25:04;;;;;;;9.32;3.15;;;;;;;-144.73;100.00;54456.97;5033851;28;20044;-75
2023/06/30 04:27:29;;;;;;;10.65;3.05;;;;;;;-144.73;100.00;54498.00;5015366;28;20021;-76
2023/06/30 04:29:54;;;;;;;13.07;3.30;;;;;;;-144.73;100.00;54448.75;5012669;28;20040;-76
2023/06/30 04:32:20;;;;;;;10.60;3.58;;;;;;;-144.73;100.00;54448.75;5014930;28;20057;-76
2023/06/30 04:34:45;;;;;;;13.15;3.35;;;;;;;-144.73;100.00;54452.84;5030041;28;20042;-76
2023/06/30 04:37:10;;;;;;;8.60;2.88;;;;;;;-144.73;100.00;54452.84;5032134;28;20048;-76
2023/06/30 04:39:36;;;;;;;13.98;3.00;;;;;;;-144.73;100.00;54440.53;5031561;28;20040;-76
2023/06/30 04:42:01;;;;;;;13.18;2.65;;;;;;;-144.73;100.00;54473.38;5032061;28;20033;-75
2023/06/30 04:44:26;;;;;;;13.90;3.10;;;;;;;-144.73;100.00;54463.13;5014871;28;20009;-76
2023/06/30 04:46:52;;;;;;;14.63;2.53;;;;;;;-144.73;100.00;54454.91;5008496;28;20097;-73
2023/06/30 04:49:17;;;;;;;7.35;2.45;;;;;;;-144.73;100.00;54420.00;5016521;28;20044;-72
2023/06/30 04:51:43;;;;;;;8.73;4.22;;;;;;;-144.73;100.00;54473.38;5021041;28;20091;-73
2023/06/30 04:54:09;;;;;;;5.80;2.78;;;;;;;-144.73;100.00;54432.31;5015774;28;20038;-73
2023/06/30 04:56:34;;;;;;;7.13;2.50;;;;;;;-144.73;100.00;54444.66;5016716;28;20033;-72
2023/06/30 04:58:59;;;;;;;7.70;2.55;;;;;;;-144.73;100.00;54448.75;5018883;28;20084;-72
2023/06/30 05:01:25;;;;;;;10.82;2.38;;;;;;;-144.73;100.00;54415.91;5036562;28;20033;-71
2023/06/30 05:03:50;;;;;;;10.93;2.33;;;;;;;-144.73;100.00;54473.38;5023274;28;20037;-71
2023/06/30 05:06:15;;;;;;;9.02;2.38;;;;;;;-144.73;100.00;54440.53;5018141;28;20037;-72
2023/06/30 05:08:43;;;;;;;8.02;2.83;;;;;;;-144.73;100.00;54502.13;5021663;28;20029;-73
2023/06/30 05:11:09;;;;;;;10.60;3.08;;;;;;;-144.73;100.00;54420.00;5018415;28;20029;-72
2023/06/30 05:13:34;;;;;;;5.57;2.40;;;;;;;-144.73;100.00;54500.06;5016615;28;20075;-73
2023/06/30 05:15:59;;;;;;;8.93;2.22;;;;;;;-144.73;100.00;54469.28;5020909;28;20034;-73
2023/06/30 05:18:25;;;;;;;7.72;2.90;;;;;;;-144.73;100.00;54444.66;5019950;28;20094;-72
2023/06/30 05:20:50;;;;;;;10.63;3.60;;;;;;;-144.73;100.00;54467.22;5014989;28;20034;-76
2023/06/30 05:23:16;;;;;;;11.18;2.63;;;;;;;-144.73;100.00;54481.59;5013698;28;20013;-77
2023/06/30 05:25:42;;;;;;;10.98;3.00;;;;;;;-144.73;100.00;54469.28;5027853;28;20029;-77
2023/06/30 05:28:07;;;;;;;11.32;2.90;;;;;;;-144.73;100.00;54461.06;5020576;28;20026;-75
2023/06/30 05:30:33;;;;;;;8.55;2.90;;;;;;;-144.73;100.00;54469.28;5032338;28;20071;-75
2023/06/30 05:32:59;;;;;;;10.13;2.92;;;;;;;-144.73;100.00;54448.75;5023961;28;20029;-76
2023/06/30 05:35:24;;;;;;;6.28;2.83;;;;;;;-144.73;100.00;54467.22;5012828;28;20030;-75
2023/06/30 05:37:49;;;;;;;14.38;3.20;;;;;;;-144.73;100.00;54448.75;5005603;28;20022;-73
2023/06/30 05:40:15;;;;;;;8.07;3.35;;;;;;;-144.73;100.00;54489.81;5019407;28;20036;-72
2023/06/30 05:42:40;;;;;;;17.42;3.53;;;;;;;-144.73;100.00;54487.75;5002517;28;20021;-72
2023/06/30 05:45:06;;;;;;;7.80;2.97;;;;;;;-144.73;100.00;54498.00;5002979;28;20038;-72
2023/06/30 05:47:31;;;;;;;15.15;3.88;;;;;;;-144.73;100.00;54502.13;5021619;28;20041;-72
2023/06/30 05:49:56;;;;;;;13.35;2.92;;;;;;;-144.73;100.00;54465.16;5000909;28;20026;-72
2023/06/30 05:52:24;;;;;;;9.82;2.90;;;;;;;-144.73;100.00;54461.06;5006181;28;20022;-72
2023/06/30 05:54:50;;;;;;;6.90;2.75;;;;;;;-144.73;100.00;54502.13;5028490;28;20048;-72
2023/06/30 05:57:16;;;;;;;11.40;3.03;;;;;;;-144.73;100.00;54461.06;5028402;28;20108;-72
2023/06/30 05:59:41;;;;;;;13.65;4.65;;;;;;;-144.73;100.00;54483.66;5011360;28;20053;-72
2023/06/30 06:02:06;;;;;;;20.58;4.20;;;;;;;-144.73;100.00;54465.16;5010587;28;20021;-73
2023/06/30 06:04:32;;;;;;;8.93;3.55;;;;;;;-144.73;100.00;54448.75;5011067;28;20034;-73
2023/06/30 06:07:01;;;;;;;9.52;3.50;;;;;;;-144.73;100.00;54434.38;5027753;28;20033;-73
2023/06/30 06:09:27;;;;;;;15.23;3.80;;;;;;;-144.73;100.00;54440.53;5008052;28;20048;-73
2023/06/30 06:11:52;;;;;;;10.45;3.63;;;;;;;-144.73;100.00;54456.97;5010943;28;20025;-73
2023/06/30 06:14:19;;;;;;;12.35;3.83;;;;;;;-144.73;100.00;54485.69;5009904;28;20061;-73
2023/06/30 06:16:45;;;;;;;13.60;3.97;;;;;;;-144.73;100.00;54452.84;5011131;28;20013;-73
2023/06/30 06:19:11;;;;;;;11.07;3.97;;;;;;;-144.73;100.00;54477.47;5026581;28;20025;-73
2023/06/30 06:21:38;;;;;;;15.75;3.90;;;;;;;-144.73;100.00;54477.47;5026765;28;20029;-72
2023/06/30 06:24:03;;;;;;;16.02;3.80;;;;;;;-144.73;100.00;54456.97;5011032;28;20071;-71
2023/06/30 06:26:29;;;;;;;10.65;3.10;;;;;;;-144.73;100.00;54452.84;5010066;28;20033;-71
2023/06/30 06:28:54;;;;;;;8.85;2.80;;;;;;;-144.73;100.00;54456.97;5027526;28;20014;-72
2023/06/30 06:31:19;;;;;;;6.90;2.95;;;;;;;-144.73;100.00;54444.66;5009543;28;20034;-71
2023/06/30 06:33:45;;;;;;;5.55;3.20;;;;;;;-144.73;100.00;54436.44;5010647;28;20237;-72
2023/06/30 06:36:10;;;;;;;9.38;2.25;;;;;;;-144.73;100.00;54465.16;5026567;28;20625;-71
2023/06/30 06:38:36;;;;;;;18.33;2.85;;;;;;;-144.73;100.00;54444.66;5011487;28;20027;-72
2023/06/30 06:41:01;;;;;;;10.73;2.60;;;;;;;-144.73;100.00;54456.97;5010090;28;20036;-71
2023/06/30 06:43:27;;;;;;;18.17;3.40;;;;;;;-144.73;100.00;54498.00;5026044;28;20020;-73
2023/06/30 06:45:53;;;;;;;14.00;3.05;;;;;;;-144.73;100.00;54473.38;5014485;28;20032;-75
2023/06/30 06:48:26;;;;;;;12.48;3.33;;;;;;;-144.73;100.00;54473.38;5026492;28;20038;-72
2023/06/30 06:50:56;;;;;;;17.67;2.95;;;;;;;-144.73;100.00;54444.66;5027560;28;20113;-73
2023/06/30 06:53:41;;;;;;;15.88;2.95;;;;;;;-144.73;100.00;54456.97;5004030;28;20026;-72
2023/06/30 06:56:07;;;;;;;15.13;2.72;;;;;;;-144.73;100.00;54448.75;5009124;28;20037;-72
2023/06/30 06:58:40;;;;;;;13.73;3.25;;;;;;;-144.73;100.00;54502.13;5010724;28;20036;-71
2023/06/30 07:01:06;;;;;;;12.48;2.47;;;;;;;-144.73;100.00;54448.75;5027522;28;20033;-71
2023/06/30 07:03:31;;;;;;;14.10;2.67;;;;;;;-144.73;100.00;54465.16;5026645;28;20556;-71
2023/06/30 07:05:58;;;;;;;12.73;2.75;;;;;;;-144.73;100.00;54485.69;5027347;28;20057;-73
2023/06/30 07:08:24;;;;;;;13.85;2.42;;;;;;;-144.73;100.00;54489.81;5010499;28;20021;-73
2023/06/30 07:10:50;;;;;;;5.43;2.40;;;;;;;-144.73;100.00;54485.69;5027649;28;20501;-71
2023/06/30 07:13:18;;;;;;;16.38;3.55;;;;;;;-144.73;100.00;54440.53;5025710;28;20029;-72
2023/06/30 07:15:45;;;;;;;7.20;2.67;;;;;;;-144.73;100.00;54456.97;5026929;28;20110;-70
2023/06/30 07:18:11;;;;;;;11.27;2.53;;;;;;;-144.73;100.00;54477.47;5010130;28;20025;-71
2023/06/30 07:20:36;;;;;;;13.40;2.42;;;;;;;-144.73;100.00;54485.69;5027581;28;20486;-71
2023/06/30 07:23:02;;;;;;;10.85;2.38;;;;;;;-144.73;100.00;54448.75;5027850;28;20067;-71
2023/06/30 07:25:27;;;;;;;7.63;2.53;;;;;;;-144.73;100.00;54456.97;5027819;28;20034;-73
2023/06/30 07:27:55;;;;;;;8.40;2.35;;;;;;;-144.73;100.00;54461.06;5011483;28;20072;-73
2023/06/30 07:30:21;;;;;;;12.95;2.20;;;;;;;-144.73;100.00;54436.44;5016496;28;20038;-71
2023/06/30 07:32:48;;;;;;;5.57;2.13;;;;;;;-144.73;100.00;54461.06;5010287;28;20018;-72
2023/06/30 07:35:13;;;;;;;10.90;2.50;;;;;;;-144.73;100.00;54502.13;5026309;28;20068;-71
2023/06/30 07:37:39;;;;;;;9.45;2.70;;;;;;;-144.73;100.00;54452.84;5028262;28;20087;-70
2023/06/30 07:40:06;;;;;;;11.90;2.00;;;;;;;-144.73;100.00;54440.53;5028118;28;20034;-71
2023/06/30 07:42:31;;;;;;;10.23;2.53;;;;;;;-144.73;100.00;54502.13;5028606;28;20394;-71
2023/06/30 07:44:57;;;;;;;6.80;1.90;;;;;;;-144.73;100.00;54465.16;5014056;28;20026;-71
2023/06/30 07:47:22;;;;;;;10.45;2.17;;;;;;;-144.73;100.00;54436.44;5019479;28;20025;-72
2023/06/30 07:49:47;;;;;;;12.10;2.75;;;;;;;-144.73;100.00;54428.22;5026100;28;20029;-71
2023/06/30 07:52:13;;;;;;;13.40;2.67;;;;;;;-144.73;100.00;54434.38;5021774;28;20017;-72
2023/06/30 07:54:38;;;;;;;11.65;2.08;;;;;;;-144.73;100.00;54440.53;5028893;28;20068;-72
2023/06/30 07:57:04;;;;;;;4.03;1.85;;;;;;;-144.73;100.00;54432.31;5014766;28;20040;-73
2023/06/30 07:59:29;;;;;;;8.25;2.45;;;;;;;-144.73;100.00;54487.75;5031521;28;20021;-72
2023/06/30 08:01:54;;;;;;;12.52;2.15;;;;;;;-144.73;100.00;54452.84;5014649;28;20044;-73
2023/06/30 08:04:21;;;;;;;11.23;2.10;;;;;;;-144.73;100.00;54422.06;5030628;28;20021;-73
2023/06/30 08:06:47;;;;;;;9.15;2.00;;;;;;;-144.73;100.00;54432.31;5015036;28;20140;-73
2023/06/30 08:09:13;;;;;;;13.23;2.17;;;;;;;-144.73;100.00;54415.91;5031859;28;20117;-73
2023/06/30 08:11:38;;;;;;;11.35;2.08;;;;;;;-144.73;100.00;54448.75;5032464;28;20061;-73
2023/06/30 08:14:04;;;;;;;6.53;2.10;;;;;;;-144.73;100.00;54424.13;5051095;28;20067;-73
2023/06/30 08:16:29;;;;;;;9.20;1.85;;;;;;;-144.73;100.00;54473.38;5026959;28;20107;-74
2023/06/30 08:18:55;;;;;;;7.20;1.63;;;;;;;-144.73;100.00;54424.13;5032488;28;20025;-74
2023/06/30 08:21:21;;;;;;;6.22;2.20;;;;;;;-144.73;100.00;54428.22;5031371;28;20034;-74
2023/06/30 08:23:46;;;;;;;12.00;2.55;;;;;;;-144.73;100.00;54415.91;5032369;28;20053;-74
2023/06/30 08:26:11;;;;;;;9.43;1.95;;;;;;;-144.73;100.00;54399.50;5032660;28;20033;-75
2023/06/30 08:28:37;;;;;;;6.72;1.85;;;;;;;-144.73;100.00;54428.22;5048534;28;20026;-75
2023/06/30 08:31:02;;;;;;;9.90;1.95;;;;;;;-144.73;100.00;54463.13;5031720;28;20064;-76
2023/06/30 08:33:28;;;;;;;11.10;2.42;;;;;;;-144.73;100.00;54436.44;5031906;28;20152;-76
2023/06/30 08:35:54;;;;;;;8.38;1.67;;;;;;;-144.73;100.00;54469.28;5024661;28;20125;-76
2023/06/30 08:38:20;;;;;;;6.65;2.00;;;;;;;-144.73;100.00;54432.31;5026851;28;20037;-77
2023/06/30 08:40:45;;;;;;;9.80;1.55;;;;;;;-144.73;100.00;54432.31;5030660;28;20029;-75
2023/06/30 08:43:11;;;;;;;8.15;2.20;;;;;;;-144.73;100.00;54370.75;5013282;28;20048;-76
2023/06/30 08:45:39;;;;;;;8.68;3.05;;;;;;;-144.73;98.81;54436.44;5013232;28;20033;-75
2023/06/30 08:48:05;;;;;;;8.88;2.20;;;;;;;-144.73;91.40;54385.13;5029553;28;20021;-76
2023/06/30 08:50:33;;;;;;;9.73;2.28;;;;;;;-144.73;90.06;54448.75;5012724;28;20042;-76
2023/06/30 08:53:00;;;;;;;19.80;2.88;;;;;;;-144.73;92.21;54399.50;5013492;28;20052;-76
2023/06/30 08:55:26;;;;;;;5.70;1.40;;;;;;;-144.73;97.26;54432.31;5029732;28;20108;-76
2023/06/30 08:57:56;;;;;;;7.15;1.45;;;;;;;-144.73;98.40;54438.50;5030067;28;20049;-76
2023/06/30 09:00:22;;;;;;;8.85;1.90;;;;;;;-144.73;99.10;54465.16;5029682;28;20402;-76
2023/06/30 09:02:48;;;;;;;4.85;1.73;;;;;;;-144.73;97.72;54442.59;5029747;28;20024;-76
2023/06/30 09:05:14;;;;;;;7.13;1.65;;;;;;;-144.73;93.85;54387.19;5012261;28;20033;-78
2023/06/30 09:07:46;;;;;;;8.27;1.70;;;;;;;-144.73;86.43;54378.97;5024653;28;20025;-77
2023/06/30 09:10:12;;;;;;;9.05;2.03;;;;;;;-144.73;80.43;54378.97;5010593;28;20037;-77
2023/06/30 09:12:58;;;;;;;9.70;2.30;;;;;;;-144.73;80.76;54411.81;5015650;28;20033;-78
2023/06/30 09:15:24;;;;;;;5.88;1.60;;;;;;;-144.73;77.34;54374.84;5036362;28;20041;-78
2023/06/30 09:17:51;;;;;;;5.57;1.48;;;;;;;-144.73;73.97;54364.59;5014976;28;20113;-78
2023/06/30 09:20:17;;;;;;;9.30;1.20;;;;;;;-144.73;77.79;54362.53;5029692;28;20030;-77
2023/06/30 09:22:42;;;;;;;7.20;1.73;;;;;;;-144.73;74.70;54354.34;5016277;28;20025;-77
2023/06/30 09:25:26;;;;;;;8.32;1.35;;;;;;;-144.73;71.76;54448.75;5027886;28;20041;-77
2023/06/30 09:27:52;;;;;;;5.70;1.63;;;;;;;-144.73;69.51;54378.97;5010414;28;20045;-76
2023/06/30 09:30:18;;;;;;;3.97;1.45;;;;;;;-144.73;68.25;54393.34;5015577;28;20029;-77
2023/06/30 09:32:43;;;;;;;4.55;1.35;;;;;;;-144.73;69.72;54358.44;5029575;28;20025;-76
2023/06/30 09:35:14;;;;;;;8.13;1.67;;;;;;;-144.73;66.66;54407.69;5011926;28;20080;-76
2023/06/30 09:37:45;;;;;;;9.20;1.70;;;;;;;-144.73;69.28;54381.00;5029971;28;20013;-77
2023/06/30 09:40:14;;;;;;;;;;;;;;;-144.73;69.49;54362.53;5026934;28;20064;-77
2023/06/30 09:42:40;;;;;;;7.28;1.65;;;;;;;-144.73;65.45;54368.69;5012271;28;19945;-77
2023/06/30 09:45:06;;;;;;;14.73;2.17;;;;;;;-144.73;63.29;54354.34;5011723;28;20034;-77
2023/06/30 09:47:31;;;;;;;2.63;1.30;;;;;;;-144.73;64.39;54415.91;5012274;28;20040;-76
2023/06/30 09:49:57;;;;;;;6.65;1.80;;;;;;;-144.73;64.08;54407.69;5027303;28;20032;-76
2023/06/30 09:52:26;;;;;;;5.82;1.27;;;;;;;-144.73;67.44;54411.81;5011512;28;20051;-77
2023/06/30 09:54:52;;;;;;;6.90;1.70;;;;;;;-144.73;63.49;54374.84;5032275;28;20055;-77
2023/06/30 09:57:17;;;;;;;13.98;1.77;;;;;;;-144.73;61.21;54407.69;5035515;28;20500;-77
2023/06/30 09:59:45;;;;;;;3.67;1.27;;;;;;;-144.73;59.85;54387.19;5016717;28;20113;-76
2023/06/30 10:02:13;;;;;;;5.10;1.50;;;;;;;-144.73;58.06;54387.19;5016962;28;20028;-76
2023/06/30 10:04:38;;;;;;;4.53;1.40;;;;;;;-144.73;62.27;54370.75;5016209;28;20132;-77
2023/06/30 10:07:05;;;;;;;7.22;1.60;;;;;;;-144.73;61.66;54411.81;5011874;28;20063;-76
2023/06/30 10:09:32;;;;;;;7.38;1.45;;;;;;;-144.73;60.46;54395.38;5010119;28;20048;-76
2023/06/30 10:11:58;;;;;;;7.72;1.30;;;;;;;-144.73;60.39;54426.16;5011240;28;20014;-76
2023/06/30 10:14:28;;;;;;;9.88;4.05;;;;;;;-144.73;60.56;54411.81;5010042;28;20029;-77
2023/06/30 10:16:56;;;;;;;7.15;1.52;;;;;;;-144.73;61.56;54409.75;5028648;28;20024;-77
2023/06/30 10:19:21;;;;;;;7.70;1.58;;;;;;;-144.73;64.04;54409.75;5027188;28;20235;-78
2023/06/30 10:21:48;;;;;;;4.63;1.48;;;;;;;-144.73;60.67;54391.28;5024377;28;20421;-75
2023/06/30 10:24:14;;;;;;;5.88;1.63;;;;;;;-144.73;61.69;54397.44;5026320;28;20040;-76
2023/06/30 10:26:40;;;;;;;11.50;1.85;;;;;;;-144.73;67.48;54432.31;5011653;28;20398;-76
2023/06/30 10:29:06;;;;;;;3.65;1.30;;;;;;;-144.73;66.34;54407.69;5029635;28;20093;-77
2023/06/30 10:31:32;;;;;;;7.32;1.85;;;;;;;-144.73;69.63;54411.81;5007130;28;20437;-76
2023/06/30 10:33:58;;;;;;;5.35;1.63;;;;;;;-144.73;65.63;54411.81;5023479;28;20060;-75
2023/06/30 10:36:25;;;;;;;3.78;1.60;;;;;;;-144.73;65.22;54428.22;5002374;28;20080;-72
2023/06/30 10:38:51;;;;;;;10.05;1.60;;;;;;;-144.73;66.06;54415.91;5010450;28;20017;-73
2023/06/30 10:41:19;;;;;;;8.45;1.52;;;;;;;-144.73;67.66;54381.00;5002048;28;20034;-73
2023/06/30 10:44:00;;;;;;;2.88;1.10;;;;;;;-144.73;62.57;54383.06;5029212;28;20025;-73
2023/06/30 10:46:48;;;;;;;5.15;1.42;;;;;;;-144.73;62.09;54407.69;5031095;28;20057;-73
2023/06/30 10:49:29;;;;;;;7.40;1.67;;;;;;;-144.73;63.93;54352.28;5020012;28;20108;-73
2023/06/30 10:51:57;;;;;;;7.28;1.75;;;;;;;-144.73;63.23;54415.91;5011852;28;20053;-72
2023/06/30 10:54:30;;;;;;;5.80;1.50;;;;;;;-144.73;64.62;54354.34;5010563;28;20043;-73
2023/06/30 10:57:13;;;;;;;6.72;1.80;;;;;;;-144.73;63.61;54420.00;5012893;28;20084;-73
2023/06/30 10:59:41;;;;;;;5.28;1.58;;;;;;;-144.73;60.31;54413.84;5013112;28;20120;-72
2023/06/30 11:02:17;;;;;;;7.90;1.52;;;;;;;-144.73;60.18;54368.69;5026334;28;20100;-72
2023/06/30 11:04:44;;;;;;;9.52;1.80;;;;;;;-144.73;60.67;54415.91;5025994;28;20041;-72
2023/06/30 11:07:11;;;;;;;3.35;1.45;;;;;;;-144.73;59.94;54381.00;5026870;28;20018;-73